sensor_id;sensor_type;location;lat;lon;timestamp;temperature;humidity
3298;DHT22;1661;53.572;10.174;2023-08-30T00:01:22;16.00;82.60
3298;DHT22;1661;53.572;10.174;2023-08-30T00:03:49;16.00;82.70
3298;DHT22;1661;53.572;10.174;2023-08-30T00:06:15;15.90;83.00
3298;DHT22;1661;53.572;10.174;2023-08-30T00:08:42;15.80;83.20
3298;DHT22;1661;53.572;10.174;2023-08-30T00:11:10;15.80;83.40
3298;DHT22;1661;53.572;10.174;2023-08-30T00:13:37;15.80;83.10
3298;DHT22;1661;53.572;10.174;2023-08-30T00:16:04;15.80;83.10
3298;DHT22;1661;53.572;10.174;2023-08-30T00:18:31;15.80;83.00
3298;DHT22;1661;53.572;10.174;2023-08-30T00:20:58;15.80;83.00
3298;DHT22;1661;53.572;10.174;2023-08-30T00:23:24;15.80;82.50
3298;DHT22;1661;53.572;10.174;2023-08-30T00:25:51;15.80;82.30
3298;DHT22;1661;53.572;10.174;2023-08-30T00:28:19;15.80;81.70
3298;DHT22;1661;53.572;10.174;2023-08-30T00:30:46;15.80;81.30
3298;DHT22;1661;53.572;10.174;2023-08-30T00:33:13;15.90;81.30
3298;DHT22;1661;53.572;10.174;2023-08-30T00:35:40;15.90;81.20
3298;DHT22;1661;53.572;10.174;2023-08-30T00:38:06;15.90;81.30
3298;DHT22;1661;53.572;10.174;2023-08-30T00:40:38;15.90;81.30
3298;DHT22;1661;53.572;10.174;2023-08-30T00:43:05;15.90;81.30
3298;DHT22;1661;53.572;10.174;2023-08-30T00:45:34;15.90;81.30
3298;DHT22;1661;53.572;10.174;2023-08-30T00:48:05;15.90;81.30
3298;DHT22;1661;53.572;10.174;2023-08-30T00:50:32;15.90;81.10
3298;DHT22;1661;53.572;10.174;2023-08-30T00:53:00;15.90;81.10
3298;DHT22;1661;53.572;10.174;2023-08-30T00:55:31;15.90;81.10
3298;DHT22;1661;53.572;10.174;2023-08-30T00:57:58;15.90;80.90
3298;DHT22;1661;53.572;10.174;2023-08-30T01:00:25;15.90;80.90
3298;DHT22;1661;53.572;10.174;2023-08-30T01:02:54;15.90;80.90
3298;DHT22;1661;53.572;10.174;2023-08-30T01:05:21;15.90;80.90
3298;DHT22;1661;53.572;10.174;2023-08-30T01:07:49;15.90;81.00
3298;DHT22;1661;53.572;10.174;2023-08-30T01:10:16;15.80;80.60
3298;DHT22;1661;53.572;10.174;2023-08-30T01:12:48;15.80;80.60
3298;DHT22;1661;53.572;10.174;2023-08-30T01:15:18;15.80;80.60
3298;DHT22;1661;53.572;10.174;2023-08-30T01:17:47;15.80;80.80
3298;DHT22;1661;53.572;10.174;2023-08-30T01:20:17;15.80;80.80
3298;DHT22;1661;53.572;10.174;2023-08-30T01:22:53;15.80;80.80
3298;DHT22;1661;53.572;10.174;2023-08-30T01:25:31;15.70;80.90
3298;DHT22;1661;53.572;10.174;2023-08-30T01:28:03;15.70;81.10
3298;DHT22;1661;53.572;10.174;2023-08-30T01:30:32;15.70;80.90
3298;DHT22;1661;53.572;10.174;2023-08-30T01:33:00;15.60;80.70
3298;DHT22;1661;53.572;10.174;2023-08-30T01:35:29;15.60;80.50
3298;DHT22;1661;53.572;10.174;2023-08-30T01:37:58;15.60;80.40
3298;DHT22;1661;53.572;10.174;2023-08-30T01:40:27;15.60;80.50
3298;DHT22;1661;53.572;10.174;2023-08-30T01:42:55;15.50;80.60
3298;DHT22;1661;53.572;10.174;2023-08-30T01:45:24;15.50;80.80
3298;DHT22;1661;53.572;10.174;2023-08-30T01:47:52;15.50;80.70
3298;DHT22;1661;53.572;10.174;2023-08-30T01:50:19;15.50;80.70
3298;DHT22;1661;53.572;10.174;2023-08-30T01:52:48;15.50;80.70
3298;DHT22;1661;53.572;10.174;2023-08-30T01:55:15;15.40;80.70
3298;DHT22;1661;53.572;10.174;2023-08-30T01:57:44;15.40;80.50
3298;DHT22;1661;53.572;10.174;2023-08-30T02:00:12;15.40;80.60
3298;DHT22;1661;53.572;10.174;2023-08-30T02:02:41;15.40;80.70
3298;DHT22;1661;53.572;10.174;2023-08-30T02:05:08;15.40;80.80
3298;DHT22;1661;53.572;10.174;2023-08-30T02:07:39;15.30;80.90
3298;DHT22;1661;53.572;10.174;2023-08-30T02:10:09;15.30;80.80
3298;DHT22;1661;53.572;10.174;2023-08-30T02:12:40;15.30;80.80
3298;DHT22;1661;53.572;10.174;2023-08-30T02:15:09;15.30;80.70
3298;DHT22;1661;53.572;10.174;2023-08-30T02:17:37;15.30;80.70
3298;DHT22;1661;53.572;10.174;2023-08-30T02:20:07;15.30;80.70
3298;DHT22;1661;53.572;10.174;2023-08-30T02:22:34;15.20;80.60
3298;DHT22;1661;53.572;10.174;2023-08-30T02:25:01;15.20;80.60
3298;DHT22;1661;53.572;10.174;2023-08-30T02:27:30;15.20;80.60
3298;DHT22;1661;53.572;10.174;2023-08-30T02:29:57;15.20;80.40
3298;DHT22;1661;53.572;10.174;2023-08-30T02:32:24;15.10;80.80
3298;DHT22;1661;53.572;10.174;2023-08-30T02:34:51;15.10;81.10
3298;DHT22;1661;53.572;10.174;2023-08-30T02:37:20;15.10;81.60
3298;DHT22;1661;53.572;10.174;2023-08-30T02:39:47;15.10;81.80
3298;DHT22;1661;53.572;10.174;2023-08-30T02:42:14;15.10;82.20
3298;DHT22;1661;53.572;10.174;2023-08-30T02:44:41;15.10;82.60
3298;DHT22;1661;53.572;10.174;2023-08-30T02:47:08;15.10;83.10
3298;DHT22;1661;53.572;10.174;2023-08-30T02:49:34;15.10;83.20
3298;DHT22;1661;53.572;10.174;2023-08-30T02:52:01;15.10;83.20
3298;DHT22;1661;53.572;10.174;2023-08-30T02:54:29;15.10;83.20
3298;DHT22;1661;53.572;10.174;2023-08-30T02:56:56;15.10;83.20
3298;DHT22;1661;53.572;10.174;2023-08-30T02:59:23;15.10;83.10
3298;DHT22;1661;53.572;10.174;2023-08-30T03:01:50;15.10;82.90
3298;DHT22;1661;53.572;10.174;2023-08-30T03:04:17;15.10;82.90
3298;DHT22;1661;53.572;10.174;2023-08-30T03:06:43;15.10;82.70
3298;DHT22;1661;53.572;10.174;2023-08-30T03:09:10;15.10;82.50
3298;DHT22;1661;53.572;10.174;2023-08-30T03:11:38;15.10;82.50
3298;DHT22;1661;53.572;10.174;2023-08-30T03:14:05;15.10;82.50
3298;DHT22;1661;53.572;10.174;2023-08-30T03:16:32;15.10;82.60
3298;DHT22;1661;53.572;10.174;2023-08-30T03:18:58;15.10;82.60
3298;DHT22;1661;53.572;10.174;2023-08-30T03:21:26;15.10;82.60
3298;DHT22;1661;53.572;10.174;2023-08-30T03:23:52;15.10;82.70
3298;DHT22;1661;53.572;10.174;2023-08-30T03:26:19;15.10;82.60
3298;DHT22;1661;53.572;10.174;2023-08-30T03:28:47;15.10;82.60
3298;DHT22;1661;53.572;10.174;2023-08-30T03:31:15;15.10;82.60
3298;DHT22;1661;53.572;10.174;2023-08-30T03:33:42;15.10;82.70
3298;DHT22;1661;53.572;10.174;2023-08-30T03:36:10;15.10;82.80
3298;DHT22;1661;53.572;10.174;2023-08-30T03:38:37;15.10;82.80
3298;DHT22;1661;53.572;10.174;2023-08-30T03:41:04;15.10;82.60
3298;DHT22;1661;53.572;10.174;2023-08-30T03:43:32;15.10;82.50
3298;DHT22;1661;53.572;10.174;2023-08-30T03:46:01;15.10;82.50
3298;DHT22;1661;53.572;10.174;2023-08-30T03:48:29;15.10;82.40
3298;DHT22;1661;53.572;10.174;2023-08-30T03:50:56;15.10;82.40
3298;DHT22;1661;53.572;10.174;2023-08-30T03:53:23;15.10;82.40
3298;DHT22;1661;53.572;10.174;2023-08-30T03:55:50;15.10;82.40
3298;DHT22;1661;53.572;10.174;2023-08-30T03:58:18;15.10;82.60
3298;DHT22;1661;53.572;10.174;2023-08-30T04:00:45;15.10;82.50
3298;DHT22;1661;53.572;10.174;2023-08-30T04:03:14;15.10;82.70
3298;DHT22;1661;53.572;10.174;2023-08-30T04:05:42;15.10;82.90
3298;DHT22;1661;53.572;10.174;2023-08-30T04:08:09;15.10;83.00
3298;DHT22;1661;53.572;10.174;2023-08-30T04:10:36;15.10;83.40
3298;DHT22;1661;53.572;10.174;2023-08-30T04:13:03;15.10;83.80
3298;DHT22;1661;53.572;10.174;2023-08-30T04:15:32;15.10;83.90
3298;DHT22;1661;53.572;10.174;2023-08-30T04:18:00;15.10;83.80
3298;DHT22;1661;53.572;10.174;2023-08-30T04:20:28;15.10;83.70
3298;DHT22;1661;53.572;10.174;2023-08-30T04:22:55;15.10;83.90
3298;DHT22;1661;53.572;10.174;2023-08-30T04:25:22;15.10;83.60
3298;DHT22;1661;53.572;10.174;2023-08-30T04:27:49;15.10;83.60
3298;DHT22;1661;53.572;10.174;2023-08-30T04:30:16;15.10;83.60
3298;DHT22;1661;53.572;10.174;2023-08-30T04:32:43;15.10;83.50
3298;DHT22;1661;53.572;10.174;2023-08-30T04:35:10;15.10;83.50
3298;DHT22;1661;53.572;10.174;2023-08-30T04:37:38;15.10;83.70
3298;DHT22;1661;53.572;10.174;2023-08-30T04:40:06;15.10;83.90
3298;DHT22;1661;53.572;10.174;2023-08-30T04:42:33;15.10;84.20
3298;DHT22;1661;53.572;10.174;2023-08-30T04:45:00;15.10;84.20
3298;DHT22;1661;53.572;10.174;2023-08-30T04:47:28;15.00;84.50
3298;DHT22;1661;53.572;10.174;2023-08-30T04:49:56;15.00;84.90
3298;DHT22;1661;53.572;10.174;2023-08-30T04:52:22;15.00;85.10
3298;DHT22;1661;53.572;10.174;2023-08-30T04:54:51;15.00;85.50
3298;DHT22;1661;53.572;10.174;2023-08-30T04:57:18;15.00;85.80
3298;DHT22;1661;53.572;10.174;2023-08-30T04:59:45;15.00;86.00
3298;DHT22;1661;53.572;10.174;2023-08-30T05:02:12;15.00;86.20
3298;DHT22;1661;53.572;10.174;2023-08-30T05:04:38;15.00;86.50
3298;DHT22;1661;53.572;10.174;2023-08-30T05:07:05;14.90;86.80
3298;DHT22;1661;53.572;10.174;2023-08-30T05:09:32;15.00;87.00
3298;DHT22;1661;53.572;10.174;2023-08-30T05:12:01;15.00;87.20
3298;DHT22;1661;53.572;10.174;2023-08-30T05:14:28;15.00;87.10
3298;DHT22;1661;53.572;10.174;2023-08-30T05:16:55;15.00;87.20
3298;DHT22;1661;53.572;10.174;2023-08-30T05:19:22;15.10;87.00
3298;DHT22;1661;53.572;10.174;2023-08-30T05:21:49;15.10;86.70
3298;DHT22;1661;53.572;10.174;2023-08-30T05:24:17;15.10;87.00
3298;DHT22;1661;53.572;10.174;2023-08-30T05:26:43;15.20;86.90
3298;DHT22;1661;53.572;10.174;2023-08-30T05:29:13;15.30;86.60
3298;DHT22;1661;53.572;10.174;2023-08-30T05:31:40;15.40;86.20
3298;DHT22;1661;53.572;10.174;2023-08-30T05:34:07;15.40;86.20
3298;DHT22;1661;53.572;10.174;2023-08-30T05:36:34;15.50;86.10
3298;DHT22;1661;53.572;10.174;2023-08-30T05:39:01;15.60;85.70
3298;DHT22;1661;53.572;10.174;2023-08-30T05:41:28;15.60;85.20
3298;DHT22;1661;53.572;10.174;2023-08-30T05:43:55;15.70;85.00
3298;DHT22;1661;53.572;10.174;2023-08-30T05:46:23;15.80;84.90
3298;DHT22;1661;53.572;10.174;2023-08-30T05:48:50;15.90;84.80
3298;DHT22;1661;53.572;10.174;2023-08-30T05:51:17;16.00;84.90
3298;DHT22;1661;53.572;10.174;2023-08-30T05:53:45;16.10;85.00
3298;DHT22;1661;53.572;10.174;2023-08-30T05:56:12;16.10;84.80
3298;DHT22;1661;53.572;10.174;2023-08-30T05:58:39;16.20;84.80
3298;DHT22;1661;53.572;10.174;2023-08-30T06:01:06;16.20;84.60
3298;DHT22;1661;53.572;10.174;2023-08-30T06:03:34;16.30;84.50
3298;DHT22;1661;53.572;10.174;2023-08-30T06:06:01;16.40;84.50
3298;DHT22;1661;53.572;10.174;2023-08-30T06:08:28;16.40;84.30
3298;DHT22;1661;53.572;10.174;2023-08-30T06:10:55;16.50;84.10
3298;DHT22;1661;53.572;10.174;2023-08-30T06:13:22;16.60;83.90
3298;DHT22;1661;53.572;10.174;2023-08-30T06:15:50;16.60;83.80
3298;DHT22;1661;53.572;10.174;2023-08-30T06:18:17;16.70;83.70
3298;DHT22;1661;53.572;10.174;2023-08-30T06:20:46;16.70;83.30
3298;DHT22;1661;53.572;10.174;2023-08-30T06:23:14;16.80;83.00
3298;DHT22;1661;53.572;10.174;2023-08-30T06:25:41;16.80;82.90
3298;DHT22;1661;53.572;10.174;2023-08-30T06:28:08;16.90;82.80
3298;DHT22;1661;53.572;10.174;2023-08-30T06:30:35;16.90;82.40
3298;DHT22;1661;53.572;10.174;2023-08-30T06:33:01;17.00;82.20
3298;DHT22;1661;53.572;10.174;2023-08-30T06:35:28;17.10;82.20
3298;DHT22;1661;53.572;10.174;2023-08-30T06:37:56;17.20;82.00
3298;DHT22;1661;53.572;10.174;2023-08-30T06:40:24;17.30;81.60
3298;DHT22;1661;53.572;10.174;2023-08-30T06:42:50;17.40;81.20
3298;DHT22;1661;53.572;10.174;2023-08-30T06:45:17;17.50;80.90
3298;DHT22;1661;53.572;10.174;2023-08-30T06:47:44;17.60;80.90
3298;DHT22;1661;53.572;10.174;2023-08-30T06:50:11;17.70;80.80
3298;DHT22;1661;53.572;10.174;2023-08-30T06:52:37;17.90;80.30
3298;DHT22;1661;53.572;10.174;2023-08-30T06:55:06;18.00;80.00
3298;DHT22;1661;53.572;10.174;2023-08-30T06:57:33;18.10;79.30
3298;DHT22;1661;53.572;10.174;2023-08-30T07:00:00;18.10;78.60
3298;DHT22;1661;53.572;10.174;2023-08-30T07:02:33;18.20;78.00
3298;DHT22;1661;53.572;10.174;2023-08-30T07:05:00;18.40;78.30
3298;DHT22;1661;53.572;10.174;2023-08-30T07:07:29;18.60;78.10
3298;DHT22;1661;53.572;10.174;2023-08-30T07:09:56;18.70;77.20
3298;DHT22;1661;53.572;10.174;2023-08-30T07:12:25;18.80;76.10
3298;DHT22;1661;53.572;10.174;2023-08-30T07:14:52;19.00;75.90
3298;DHT22;1661;53.572;10.174;2023-08-30T07:17:19;19.10;76.00
3298;DHT22;1661;53.572;10.174;2023-08-30T07:19:46;19.30;75.30
3298;DHT22;1661;53.572;10.174;2023-08-30T07:22:13;19.40;75.20
3298;DHT22;1661;53.572;10.174;2023-08-30T07:24:41;19.60;74.60
3298;DHT22;1661;53.572;10.174;2023-08-30T07:27:08;19.80;74.20
3298;DHT22;1661;53.572;10.174;2023-08-30T07:29:38;19.90;74.20
3298;DHT22;1661;53.572;10.174;2023-08-30T07:32:06;20.00;73.90
3298;DHT22;1661;53.572;10.174;2023-08-30T07:34:32;20.20;73.50
3298;DHT22;1661;53.572;10.174;2023-08-30T07:36:59;20.40;72.90
3298;DHT22;1661;53.572;10.174;2023-08-30T07:39:25;20.50;72.20
3298;DHT22;1661;53.572;10.174;2023-08-30T07:41:52;20.70;71.00
3298;DHT22;1661;53.572;10.174;2023-08-30T07:44:18;20.70;70.00
3298;DHT22;1661;53.572;10.174;2023-08-30T07:46:47;20.70;69.80
3298;DHT22;1661;53.572;10.174;2023-08-30T07:49:14;20.70;69.80
3298;DHT22;1661;53.572;10.174;2023-08-30T07:51:41;20.80;70.00
3298;DHT22;1661;53.572;10.174;2023-08-30T07:54:07;20.90;70.10
3298;DHT22;1661;53.572;10.174;2023-08-30T07:56:34;21.00;69.40
3298;DHT22;1661;53.572;10.174;2023-08-30T07:59:01;21.20;69.10
3298;DHT22;1661;53.572;10.174;2023-08-30T08:01:28;21.30;68.50
3298;DHT22;1661;53.572;10.174;2023-08-30T08:03:57;21.50;68.50
3298;DHT22;1661;53.572;10.174;2023-08-30T08:06:23;21.70;66.80
3298;DHT22;1661;53.572;10.174;2023-08-30T08:08:50;21.80;66.50
3298;DHT22;1661;53.572;10.174;2023-08-30T08:11:17;21.90;66.80
3298;DHT22;1661;53.572;10.174;2023-08-30T08:13:44;22.00;66.00
3298;DHT22;1661;53.572;10.174;2023-08-30T08:16:11;22.10;65.70
3298;DHT22;1661;53.572;10.174;2023-08-30T08:18:37;22.10;65.00
3298;DHT22;1661;53.572;10.174;2023-08-30T08:21:05;22.20;65.50
3298;DHT22;1661;53.572;10.174;2023-08-30T08:23:32;22.20;64.60
3298;DHT22;1661;53.572;10.174;2023-08-30T08:26:00;22.30;64.80
3298;DHT22;1661;53.572;10.174;2023-08-30T08:28:28;22.30;64.90
3298;DHT22;1661;53.572;10.174;2023-08-30T08:30:54;22.50;64.70
3298;DHT22;1661;53.572;10.174;2023-08-30T08:33:21;22.50;64.50
3298;DHT22;1661;53.572;10.174;2023-08-30T08:35:49;22.60;63.30
3298;DHT22;1661;53.572;10.174;2023-08-30T08:38:17;22.70;63.80
3298;DHT22;1661;53.572;10.174;2023-08-30T08:40:44;22.90;63.90
3298;DHT22;1661;53.572;10.174;2023-08-30T08:43:11;23.00;63.30
3298;DHT22;1661;53.572;10.174;2023-08-30T08:45:38;23.00;62.20
3298;DHT22;1661;53.572;10.174;2023-08-30T08:48:06;23.10;61.70
3298;DHT22;1661;53.572;10.174;2023-08-30T08:50:33;23.20;62.40
3298;DHT22;1661;53.572;10.174;2023-08-30T08:53:02;23.10;62.40
3298;DHT22;1661;53.572;10.174;2023-08-30T08:55:31;23.20;61.90
3298;DHT22;1661;53.572;10.174;2023-08-30T08:57:58;23.10;62.30
3298;DHT22;1661;53.572;10.174;2023-08-30T09:00:25;23.00;62.20
3298;DHT22;1661;53.572;10.174;2023-08-30T09:02:53;23.00;62.60
3298;DHT22;1661;53.572;10.174;2023-08-30T09:05:20;23.10;62.70
3298;DHT22;1661;53.572;10.174;2023-08-30T09:07:48;23.20;62.80
3298;DHT22;1661;53.572;10.174;2023-08-30T09:10:19;23.10;61.90
3298;DHT22;1661;53.572;10.174;2023-08-30T09:12:47;23.00;61.50
3298;DHT22;1661;53.572;10.174;2023-08-30T09:15:14;23.00;61.90
3298;DHT22;1661;53.572;10.174;2023-08-30T09:17:41;23.10;62.70
3298;DHT22;1661;53.572;10.174;2023-08-30T09:20:10;23.10;63.00
3298;DHT22;1661;53.572;10.174;2023-08-30T09:22:41;23.20;62.70
3298;DHT22;1661;53.572;10.174;2023-08-30T09:25:09;23.20;61.20
3298;DHT22;1661;53.572;10.174;2023-08-30T09:27:37;23.10;62.20
3298;DHT22;1661;53.572;10.174;2023-08-30T09:30:09;23.10;62.00
3298;DHT22;1661;53.572;10.174;2023-08-30T09:32:40;23.00;61.70
3298;DHT22;1661;53.572;10.174;2023-08-30T09:35:08;22.90;61.10
3298;DHT22;1661;53.572;10.174;2023-08-30T09:37:35;22.90;61.70
3298;DHT22;1661;53.572;10.174;2023-08-30T09:40:03;22.90;61.10
3298;DHT22;1661;53.572;10.174;2023-08-30T09:42:31;22.90;61.50
3298;DHT22;1661;53.572;10.174;2023-08-30T09:44:58;22.90;61.30
3298;DHT22;1661;53.572;10.174;2023-08-30T09:47:26;22.90;60.50
3298;DHT22;1661;53.572;10.174;2023-08-30T09:49:55;22.90;60.80
3298;DHT22;1661;53.572;10.174;2023-08-30T09:52:24;22.90;60.00
3298;DHT22;1661;53.572;10.174;2023-08-30T09:54:51;23.00;59.60
3298;DHT22;1661;53.572;10.174;2023-08-30T09:57:19;23.10;59.50
3298;DHT22;1661;53.572;10.174;2023-08-30T09:59:48;23.10;60.30
3298;DHT22;1661;53.572;10.174;2023-08-30T10:02:16;23.20;58.90
3298;DHT22;1661;53.572;10.174;2023-08-30T10:04:45;23.30;58.40
3298;DHT22;1661;53.572;10.174;2023-08-30T10:07:12;23.40;58.00
3298;DHT22;1661;53.572;10.174;2023-08-30T10:09:41;23.50;57.70
3298;DHT22;1661;53.572;10.174;2023-08-30T10:12:08;23.60;57.90
3298;DHT22;1661;53.572;10.174;2023-08-30T10:14:36;23.60;57.60
3298;DHT22;1661;53.572;10.174;2023-08-30T10:17:05;23.70;58.00
3298;DHT22;1661;53.572;10.174;2023-08-30T10:19:34;23.50;58.00
3298;DHT22;1661;53.572;10.174;2023-08-30T10:22:05;23.40;57.70
3298;DHT22;1661;53.572;10.174;2023-08-30T10:24:37;23.20;57.70
3298;DHT22;1661;53.572;10.174;2023-08-30T10:27:06;23.20;57.90
3298;DHT22;1661;53.572;10.174;2023-08-30T10:29:35;23.20;58.90
3298;DHT22;1661;53.572;10.174;2023-08-30T10:32:03;23.20;58.40
3298;DHT22;1661;53.572;10.174;2023-08-30T10:34:32;23.20;58.30
3298;DHT22;1661;53.572;10.174;2023-08-30T10:37:00;23.10;59.00
3298;DHT22;1661;53.572;10.174;2023-08-30T10:39:33;23.10;59.10
3298;DHT22;1661;53.572;10.174;2023-08-30T10:42:06;23.10;60.30
3298;DHT22;1661;53.572;10.174;2023-08-30T10:44:33;23.10;59.10
3298;DHT22;1661;53.572;10.174;2023-08-30T10:47:02;23.20;60.50
3298;DHT22;1661;53.572;10.174;2023-08-30T10:49:29;23.10;57.90
3298;DHT22;1661;53.572;10.174;2023-08-30T10:52:05;23.20;57.80
3298;DHT22;1661;53.572;10.174;2023-08-30T10:54:39;23.10;57.50
3298;DHT22;1661;53.572;10.174;2023-08-30T10:57:12;23.00;57.30
3298;DHT22;1661;53.572;10.174;2023-08-30T10:59:39;23.00;58.10
3298;DHT22;1661;53.572;10.174;2023-08-30T11:02:07;23.00;58.40
3298;DHT22;1661;53.572;10.174;2023-08-30T11:04:39;23.00;57.40
3298;DHT22;1661;53.572;10.174;2023-08-30T11:07:07;23.20;59.60
3298;DHT22;1661;53.572;10.174;2023-08-30T11:09:39;23.30;58.90
3298;DHT22;1661;53.572;10.174;2023-08-30T11:12:06;23.40;57.80
3298;DHT22;1661;53.572;10.174;2023-08-30T11:14:33;23.50;58.50
3298;DHT22;1661;53.572;10.174;2023-08-30T11:17:00;23.60;59.60
3298;DHT22;1661;53.572;10.174;2023-08-30T11:19:29;23.90;58.70
3298;DHT22;1661;53.572;10.174;2023-08-30T11:21:56;24.10;57.00
3298;DHT22;1661;53.572;10.174;2023-08-30T11:24:23;24.30;56.20
3298;DHT22;1661;53.572;10.174;2023-08-30T11:26:54;24.50;55.20
3298;DHT22;1661;53.572;10.174;2023-08-30T11:29:21;24.70;54.40
3298;DHT22;1661;53.572;10.174;2023-08-30T11:31:49;24.80;52.80
3298;DHT22;1661;53.572;10.174;2023-08-30T11:34:20;24.80;53.80
3298;DHT22;1661;53.572;10.174;2023-08-30T11:36:48;24.90;54.70
3298;DHT22;1661;53.572;10.174;2023-08-30T11:39:16;24.90;53.60
3298;DHT22;1661;53.572;10.174;2023-08-30T11:41:43;24.90;53.30
3298;DHT22;1661;53.572;10.174;2023-08-30T11:44:11;24.90;53.20
3298;DHT22;1661;53.572;10.174;2023-08-30T11:46:39;25.00;52.80
3298;DHT22;1661;53.572;10.174;2023-08-30T11:49:06;25.00;53.70
3298;DHT22;1661;53.572;10.174;2023-08-30T11:51:33;25.00;52.90
3298;DHT22;1661;53.572;10.174;2023-08-30T11:54:00;24.80;51.60
3298;DHT22;1661;53.572;10.174;2023-08-30T11:56:29;24.60;51.30
3298;DHT22;1661;53.572;10.174;2023-08-30T11:58:56;24.50;51.10
3298;DHT22;1661;53.572;10.174;2023-08-30T12:01:24;24.30;51.00
3298;DHT22;1661;53.572;10.174;2023-08-30T12:03:51;24.20;51.80
3298;DHT22;1661;53.572;10.174;2023-08-30T12:06:18;24.30;52.40
3298;DHT22;1661;53.572;10.174;2023-08-30T12:08:44;24.30;51.00
3298;DHT22;1661;53.572;10.174;2023-08-30T12:11:18;24.40;53.00
3298;DHT22;1661;53.572;10.174;2023-08-30T12:13:46;24.50;52.30
3298;DHT22;1661;53.572;10.174;2023-08-30T12:16:16;24.60;53.00
3298;DHT22;1661;53.572;10.174;2023-08-30T12:18:44;24.60;50.60
3298;DHT22;1661;53.572;10.174;2023-08-30T12:21:13;24.60;51.50
3298;DHT22;1661;53.572;10.174;2023-08-30T12:23:40;24.40;51.90
3298;DHT22;1661;53.572;10.174;2023-08-30T12:26:08;24.40;51.30
3298;DHT22;1661;53.572;10.174;2023-08-30T12:28:36;24.60;51.30
3298;DHT22;1661;53.572;10.174;2023-08-30T12:31:03;24.80;51.60
3298;DHT22;1661;53.572;10.174;2023-08-30T12:33:30;25.00;51.80
3298;DHT22;1661;53.572;10.174;2023-08-30T12:35:59;25.20;52.10
3298;DHT22;1661;53.572;10.174;2023-08-30T12:38:26;25.30;50.20
3298;DHT22;1661;53.572;10.174;2023-08-30T12:40:56;25.40;50.10
3298;DHT22;1661;53.572;10.174;2023-08-30T12:43:23;25.60;51.10
3298;DHT22;1661;53.572;10.174;2023-08-30T12:45:50;25.80;48.20
3298;DHT22;1661;53.572;10.174;2023-08-30T12:48:18;26.00;49.90
3298;DHT22;1661;53.572;10.174;2023-08-30T12:50:46;26.20;49.80
3298;DHT22;1661;53.572;10.174;2023-08-30T12:53:15;26.50;48.80
3298;DHT22;1661;53.572;10.174;2023-08-30T12:55:43;26.60;48.50
3298;DHT22;1661;53.572;10.174;2023-08-30T12:58:09;26.60;47.80
3298;DHT22;1661;53.572;10.174;2023-08-30T13:00:37;26.70;47.50
3298;DHT22;1661;53.572;10.174;2023-08-30T13:03:04;26.60;47.40
3298;DHT22;1661;53.572;10.174;2023-08-30T13:05:31;26.70;46.90
3298;DHT22;1661;53.572;10.174;2023-08-30T13:07:58;26.70;46.30
3298;DHT22;1661;53.572;10.174;2023-08-30T13:10:27;26.70;47.10
3298;DHT22;1661;53.572;10.174;2023-08-30T13:12:54;26.70;46.60
3298;DHT22;1661;53.572;10.174;2023-08-30T13:15:20;26.70;48.10
3298;DHT22;1661;53.572;10.174;2023-08-30T13:17:47;26.60;47.30
3298;DHT22;1661;53.572;10.174;2023-08-30T13:20:14;26.40;48.10
3298;DHT22;1661;53.572;10.174;2023-08-30T13:22:41;26.30;47.30
3298;DHT22;1661;53.572;10.174;2023-08-30T13:25:08;26.30;49.10
3298;DHT22;1661;53.572;10.174;2023-08-30T13:27:36;26.40;48.70
3298;DHT22;1661;53.572;10.174;2023-08-30T13:30:05;26.50;48.70
3298;DHT22;1661;53.572;10.174;2023-08-30T13:32:31;26.70;46.90
3298;DHT22;1661;53.572;10.174;2023-08-30T13:34:59;26.80;47.40
3298;DHT22;1661;53.572;10.174;2023-08-30T13:37:25;26.80;46.30
3298;DHT22;1661;53.572;10.174;2023-08-30T13:39:52;26.80;46.80
3298;DHT22;1661;53.572;10.174;2023-08-30T13:42:19;26.80;47.00
3298;DHT22;1661;53.572;10.174;2023-08-30T13:44:50;26.70;46.20
3298;DHT22;1661;53.572;10.174;2023-08-30T13:47:18;26.50;48.50
3298;DHT22;1661;53.572;10.174;2023-08-30T13:49:45;26.50;47.50
3298;DHT22;1661;53.572;10.174;2023-08-30T13:52:12;26.30;46.70
3298;DHT22;1661;53.572;10.174;2023-08-30T13:54:38;26.10;47.70
3298;DHT22;1661;53.572;10.174;2023-08-30T13:57:05;26.10;48.10
3298;DHT22;1661;53.572;10.174;2023-08-30T13:59:33;26.10;48.70
3298;DHT22;1661;53.572;10.174;2023-08-30T14:02:04;26.20;48.40
3298;DHT22;1661;53.572;10.174;2023-08-30T14:04:32;26.20;48.00
3298;DHT22;1661;53.572;10.174;2023-08-30T14:07:01;26.20;47.90
3298;DHT22;1661;53.572;10.174;2023-08-30T14:09:29;26.40;47.70
3298;DHT22;1661;53.572;10.174;2023-08-30T14:11:57;26.40;47.90
3298;DHT22;1661;53.572;10.174;2023-08-30T14:14:23;26.20;48.00
3298;DHT22;1661;53.572;10.174;2023-08-30T14:16:50;26.10;47.40
3298;DHT22;1661;53.572;10.174;2023-08-30T14:19:18;26.00;48.00
3298;DHT22;1661;53.572;10.174;2023-08-30T14:21:45;26.00;50.10
3298;DHT22;1661;53.572;10.174;2023-08-30T14:24:12;26.10;47.60
3298;DHT22;1661;53.572;10.174;2023-08-30T14:26:39;26.10;47.20
3298;DHT22;1661;53.572;10.174;2023-08-30T14:29:05;25.90;48.40
3298;DHT22;1661;53.572;10.174;2023-08-30T14:31:32;25.80;48.40
3298;DHT22;1661;53.572;10.174;2023-08-30T14:33:59;25.70;48.60
3298;DHT22;1661;53.572;10.174;2023-08-30T14:36:28;25.70;49.20
3298;DHT22;1661;53.572;10.174;2023-08-30T14:38:55;25.70;49.30
3298;DHT22;1661;53.572;10.174;2023-08-30T14:41:21;25.70;49.80
3298;DHT22;1661;53.572;10.174;2023-08-30T14:43:48;25.60;48.10
3298;DHT22;1661;53.572;10.174;2023-08-30T14:46:15;25.30;48.80
3298;DHT22;1661;53.572;10.174;2023-08-30T14:48:43;25.10;49.10
3298;DHT22;1661;53.572;10.174;2023-08-30T14:51:10;25.00;50.20
3298;DHT22;1661;53.572;10.174;2023-08-30T14:53:38;24.90;51.10
3298;DHT22;1661;53.572;10.174;2023-08-30T14:56:05;24.90;50.70
3298;DHT22;1661;53.572;10.174;2023-08-30T14:58:37;24.80;51.90
3298;DHT22;1661;53.572;10.174;2023-08-30T15:01:04;24.70;50.40
3298;DHT22;1661;53.572;10.174;2023-08-30T15:03:31;24.70;51.80
3298;DHT22;1661;53.572;10.174;2023-08-30T15:05:58;24.70;52.90
3298;DHT22;1661;53.572;10.174;2023-08-30T15:08:25;24.70;52.00
3298;DHT22;1661;53.572;10.174;2023-08-30T15:10:53;24.60;51.30
3298;DHT22;1661;53.572;10.174;2023-08-30T15:13:20;24.60;51.70
3298;DHT22;1661;53.572;10.174;2023-08-30T15:15:47;24.50;51.80
3298;DHT22;1661;53.572;10.174;2023-08-30T15:18:14;24.40;51.70
3298;DHT22;1661;53.572;10.174;2023-08-30T15:20:41;24.40;53.00
3298;DHT22;1661;53.572;10.174;2023-08-30T15:23:11;24.30;53.10
3298;DHT22;1661;53.572;10.174;2023-08-30T15:25:43;24.30;52.90
3298;DHT22;1661;53.572;10.174;2023-08-30T15:28:11;24.10;53.00
3298;DHT22;1661;53.572;10.174;2023-08-30T15:30:38;23.80;54.10
3298;DHT22;1661;53.572;10.174;2023-08-30T15:33:08;23.60;54.90
3298;DHT22;1661;53.572;10.174;2023-08-30T15:35:37;23.40;56.70
3298;DHT22;1661;53.572;10.174;2023-08-30T15:38:04;23.30;56.80
3298;DHT22;1661;53.572;10.174;2023-08-30T15:40:30;23.10;57.90
3298;DHT22;1661;53.572;10.174;2023-08-30T15:42:58;23.00;57.90
3298;DHT22;1661;53.572;10.174;2023-08-30T15:45:27;22.90;59.30
3298;DHT22;1661;53.572;10.174;2023-08-30T15:47:53;22.80;61.30